createdAt,value
2022-08-28T00:00:54.868Z,100852.38
2022-08-28T00:02:58.010Z,100862.13
2022-08-28T00:04:59.767Z,100858.97
2022-08-28T00:07:01.447Z,100857.25
2022-08-28T00:09:04.138Z,100862.38
2022-08-28T00:11:05.805Z,100853.31
2022-08-28T00:13:08.152Z,100860.13
2022-08-28T00:15:12.889Z,100856.19
2022-08-28T00:17:14.530Z,100865.00
2022-08-28T00:19:19.047Z,100862.13
2022-08-28T00:21:20.571Z,100867.25
2022-08-28T00:23:22.502Z,100875.97
2022-08-28T00:25:26.368Z,100870.13
2022-08-28T00:27:27.937Z,100869.22
2022-08-28T00:29:30.299Z,100864.53
2022-08-28T00:31:32.338Z,100868.09
2022-08-28T00:33:34.945Z,100865.53
2022-08-28T00:35:38.265Z,100859.94
2022-08-28T00:37:39.789Z,100868.03
2022-08-28T00:39:41.353Z,100865.22
2022-08-28T00:41:43.902Z,100871.72
2022-08-28T00:43:48.135Z,100863.19
2022-08-28T00:45:49.743Z,100860.94
2022-08-28T00:47:51.331Z,100854.09
2022-08-28T00:49:55.429Z,100864.75
2022-08-28T00:52:03.535Z,100867.06
2022-08-28T00:54:07.869Z,100859.75
2022-08-28T00:56:13.319Z,100864.03
2022-08-28T00:58:15.114Z,100861.47
2022-08-28T01:00:22.330Z,100862.00
2022-08-28T01:02:24.063Z,100859.28
2022-08-28T01:04:28.433Z,100858.03
2022-08-28T01:06:30.036Z,100862.44
2022-08-28T01:08:33.837Z,100862.84
2022-08-28T01:10:35.900Z,100851.19
2022-08-28T01:12:37.869Z,100860.22
2022-08-28T01:14:41.661Z,100860.34
2022-08-28T01:16:44.446Z,100859.88
2022-08-28T01:18:47.147Z,100861.34
2022-08-28T01:20:55.672Z,100855.81
2022-08-28T01:23:06.380Z,100858.03
2022-08-28T01:25:13.224Z,100862.84
2022-08-28T01:27:15.150Z,100861.59
2022-08-28T01:29:17.348Z,100860.22
2022-08-28T01:31:19.727Z,100857.78
2022-08-28T01:33:27.827Z,100862.59
2022-08-28T01:35:32.262Z,100869.09
2022-08-28T01:37:33.824Z,100864.81
2022-08-28T01:39:35.370Z,100862.97
2022-08-28T01:41:40.250Z,100865.47
2022-08-28T01:43:42.910Z,100861.84
2022-08-28T01:45:48.064Z,100865.22
2022-08-28T01:47:51.295Z,100858.69
2022-08-28T01:49:53.138Z,100858.97
2022-08-28T01:51:55.806Z,100864.09
2022-08-28T01:53:58.475Z,100861.53
2022-08-28T01:56:01.615Z,100857.25
2022-08-28T01:58:06.648Z,100853.31
2022-08-28T02:00:09.800Z,100851.91
2022-08-28T02:02:11.425Z,100855.88
2022-08-28T02:04:13.062Z,100863.97
2022-08-28T02:06:16.396Z,100857.63
2022-08-28T02:08:18.376Z,100864.00
2022-08-28T02:10:20.644Z,100860.31
2022-08-28T02:12:22.157Z,100856.91
2022-08-28T02:14:25.375Z,100861.03
2022-08-28T02:16:27.589Z,100863.28
2022-08-28T02:18:29.161Z,100863.38
2022-08-28T02:20:31.803Z,100859.88
2022-08-28T02:22:33.839Z,100860.59
2022-08-28T02:24:35.911Z,100856.19
2022-08-28T02:26:39.127Z,100863.38
2022-08-28T02:28:40.949Z,100876.66
2022-08-28T02:30:43.929Z,100868.97
2022-08-28T02:32:45.947Z,100873.69
2022-08-28T02:34:47.537Z,100866.28
2022-08-28T02:36:49.666Z,100862.59
2022-08-28T02:38:55.495Z,100868.91
2022-08-28T02:40:59.266Z,100868.38
2022-08-28T02:43:01.000Z,100875.47
2022-08-28T02:45:02.941Z,100874.28
2022-08-28T02:47:05.954Z,100882.13
2022-08-28T02:49:07.459Z,100872.84
2022-08-28T02:51:11.785Z,100878.16
2022-08-28T02:53:14.053Z,100878.88
2022-08-28T02:55:18.167Z,100875.59
2022-08-28T02:57:19.712Z,100873.63
2022-08-28T02:59:21.308Z,100880.50
2022-08-28T03:01:22.936Z,100879.31
2022-08-28T03:03:26.312Z,100871.47
2022-08-28T03:05:27.821Z,100874.56
2022-08-28T03:07:29.342Z,100876.91
2022-08-28T03:09:30.912Z,100880.09
2022-08-28T03:11:32.502Z,100885.84
2022-08-28T03:13:34.401Z,100872.56
2022-08-28T03:15:35.984Z,100877.34
2022-08-28T03:17:37.989Z,100870.09
2022-08-28T03:19:41.193Z,100882.22
2022-08-28T03:21:42.887Z,100882.56
2022-08-28T03:23:44.405Z,100882.59
2022-08-28T03:25:45.908Z,100879.38
2022-08-28T03:27:47.466Z,100876.69
2022-08-28T03:29:49.089Z,100882.94
2022-08-28T03:31:50.594Z,100884.56
2022-08-28T03:33:53.316Z,100882.34
2022-08-28T03:35:56.171Z,100887.22
2022-08-28T03:37:57.956Z,100874.03
2022-08-28T03:40:00.263Z,100882.38
2022-08-28T03:42:01.859Z,100887.84
2022-08-28T03:44:03.890Z,100883.78
2022-08-28T03:46:07.761Z,100882.56
2022-08-28T03:48:09.379Z,100887.72
2022-08-28T03:50:12.574Z,100879.66
2022-08-28T03:52:15.492Z,100883.31
2022-08-28T03:54:17.041Z,100890.44
2022-08-28T03:56:20.434Z,100879.41
2022-08-28T03:58:22.808Z,100889.22
2022-08-28T04:00:24.394Z,100885.66
2022-08-28T04:02:26.056Z,100887.50
2022-08-28T04:04:27.592Z,100893.47
2022-08-28T04:06:29.103Z,100899.72
2022-08-28T04:08:32.109Z,100905.38
2022-08-28T04:10:33.878Z,100901.22
2022-08-28T04:12:35.533Z,100903.53
2022-08-28T04:14:38.002Z,100904.78
2022-08-28T04:16:39.613Z,100913.34
2022-08-28T04:18:42.584Z,100904.66
2022-08-28T04:20:45.480Z,100903.91
2022-08-28T04:22:48.801Z,100910.03
2022-08-28T04:24:58.041Z,100912.59
2022-08-28T04:26:59.550Z,100919.56
2022-08-28T04:29:01.088Z,100918.09
2022-08-28T04:31:02.756Z,100919.56
2022-08-28T04:33:04.263Z,100921.28
2022-08-28T04:35:09.268Z,100924.94
2022-08-28T04:37:10.770Z,100930.22
2022-08-28T04:39:12.281Z,100931.34
2022-08-28T04:41:18.574Z,100937.44
2022-08-28T04:43:20.089Z,100930.81
2022-08-28T04:45:21.588Z,100940.97
2022-08-28T04:47:23.403Z,100935.97
2022-08-28T04:49:25.938Z,100941.59
2022-08-28T04:51:28.342Z,100937.06
2022-08-28T04:53:29.876Z,100934.97
2022-08-28T04:55:45.078Z,100934.50
2022-08-28T04:57:54.236Z,100925.44
2022-08-28T04:59:55.758Z,100928.38
2022-08-28T05:01:57.346Z,100930.69
2022-08-28T05:04:01.022Z,100931.56
2022-08-28T05:06:03.384Z,100940.84
2022-08-28T05:08:04.917Z,100940.84
2022-08-28T05:10:06.997Z,100944.53
2022-08-28T05:12:08.571Z,100937.53
2022-08-28T05:14:16.132Z,100936.69
2022-08-28T05:16:19.699Z,100940.72
2022-08-28T05:18:22.607Z,100939.00
2022-08-28T05:20:24.097Z,100940.47
2022-08-28T05:22:25.594Z,100943.06
2022-08-28T05:24:27.145Z,100940.97
2022-08-28T05:26:29.759Z,100939.13
2022-08-28T05:28:31.565Z,100950.88
2022-08-28T05:30:34.567Z,100949.16
2022-08-28T05:32:36.120Z,100952.34
2022-08-28T05:34:37.643Z,100962.38
2022-08-28T05:36:40.025Z,100963.59
2022-08-28T05:38:42.055Z,100957.00
2022-08-28T05:40:45.401Z,100960.16
2022-08-28T05:42:46.923Z,100965.31
2022-08-28T05:44:48.437Z,100968.25
2022-08-28T05:46:57.547Z,100973.63
2022-08-28T05:48:59.227Z,100967.38
2022-08-28T05:51:04.368Z,100968.00
2022-08-28T05:53:06.163Z,100966.16
2022-08-28T05:55:08.942Z,100967.97
2022-08-28T05:57:10.448Z,100973.13
2022-08-28T05:59:13.242Z,100980.13
2022-08-28T06:01:16.870Z,100971.94
2022-08-28T06:03:19.769Z,100974.50
2022-08-28T06:05:21.273Z,100968.97
2022-08-28T06:07:22.928Z,100973.03
2022-08-28T06:09:29.632Z,100976.69
2022-08-28T06:11:32.343Z,100973.50
2022-08-28T06:13:34.223Z,100976.69
2022-08-28T06:15:41.562Z,100980.84
2022-08-28T06:17:43.067Z,100976.31
2022-08-28T06:19:45.960Z,100962.50
2022-08-28T06:21:47.570Z,100970.22
2022-08-28T06:23:49.059Z,100975.59
2022-08-28T06:25:51.772Z,100975.72
2022-08-28T06:27:53.346Z,100983.19
2022-08-28T06:29:54.902Z,100978.78
2022-08-28T06:31:58.816Z,100982.34
2022-08-28T06:34:01.173Z,100972.22
2022-08-28T06:36:05.034Z,100971.72
2022-08-28T06:38:06.599Z,100984.47
2022-08-28T06:40:09.009Z,100975.41
2022-08-28T06:42:10.539Z,100976.00
2022-08-28T06:44:13.698Z,100985.69
2022-08-28T06:46:15.901Z,100987.84
2022-08-28T06:48:17.762Z,100990.56
2022-08-28T06:50:19.586Z,100990.56
2022-08-28T06:52:22.572Z,100998.63
2022-08-28T06:54:25.579Z,100995.97
2022-08-28T06:56:27.368Z,101004.03
2022-08-28T06:58:29.566Z,101001.81
2022-08-28T07:00:31.758Z,101008.56
2022-08-28T07:02:34.336Z,101009.41
2022-08-28T07:04:35.913Z,101009.09
2022-08-28T07:06:39.216Z,101010.81
2022-08-28T07:08:43.997Z,101010.19
2022-08-28T07:10:45.956Z,101007.75
2022-08-28T07:12:49.366Z,101015.78
2022-08-28T07:14:50.949Z,101019.94
2022-08-28T07:16:52.550Z,101025.75
2022-08-28T07:18:54.462Z,101024.53
2022-08-28T07:20:57.680Z,101027.72
2022-08-28T07:22:59.388Z,101028.97
2022-08-28T07:25:02.869Z,101032.88
2022-08-28T07:27:04.471Z,101030.22
2022-08-28T07:29:10.363Z,101038.53
2022-08-28T07:31:14.935Z,101036.06
2022-08-28T07:33:16.476Z,101045.16
2022-08-28T07:35:18.300Z,101037.56
2022-08-28T07:37:20.180Z,101037.31
2022-08-28T07:39:21.760Z,101040.53
2022-08-28T07:41:26.818Z,101035.72
2022-08-28T07:43:28.338Z,101042.84
2022-08-28T07:45:29.976Z,101041.13
2022-08-28T07:47:31.903Z,101040.25
2022-08-28T07:49:34.540Z,101047.44
2022-08-28T07:51:37.053Z,101050.09
2022-08-28T07:53:38.679Z,101053.53
2022-08-28T07:55:40.371Z,101050.81
2022-08-28T07:57:43.334Z,101044.88
2022-08-28T07:59:44.859Z,101046.91
2022-08-28T08:01:48.575Z,101052.78
2022-08-28T08:03:50.346Z,101052.63
2022-08-28T08:05:59.812Z,101050.78
2022-08-28T08:08:01.339Z,101058.00
2022-08-28T08:10:03.158Z,101064.72
2022-08-28T08:12:05.078Z,101060.69
2022-08-28T08:14:07.999Z,101043.94
2022-08-28T08:16:11.700Z,101063.94
2022-08-28T08:18:13.396Z,101057.91
2022-08-28T08:20:15.186Z,101060.09
2022-08-28T08:22:16.904Z,101064.22
2022-08-28T08:24:19.966Z,101060.63
2022-08-28T08:26:23.458Z,101055.41
2022-08-28T08:28:25.326Z,101052.41
2022-08-28T08:30:28.288Z,101061.97
2022-08-28T08:32:30.108Z,101068.53
2022-08-28T08:34:31.666Z,101062.06
2022-08-28T08:36:35.857Z,101072.16
2022-08-28T08:38:38.093Z,101076.69
2022-08-28T08:40:39.739Z,101071.69
2022-08-28T08:42:47.457Z,101082.25
2022-08-28T08:44:50.932Z,101079.94
2022-08-28T08:47:03.020Z,101088.47
2022-08-28T08:49:16.591Z,101080.34
2022-08-28T08:51:26.597Z,101084.41
2022-08-28T08:53:38.984Z,101088.09
2022-08-28T08:55:44.519Z,101084.66
2022-08-28T08:57:49.994Z,101081.75
2022-08-28T08:59:51.579Z,101082.72
2022-08-28T09:02:03.038Z,101072.28
2022-08-28T09:04:21.643Z,101072.34
2022-08-28T09:06:32.597Z,101078.03
2022-08-28T09:08:42.233Z,101086.56
2022-08-28T09:10:51.566Z,101087.28
2022-08-28T09:13:00.994Z,101087.47
2022-08-28T09:15:09.724Z,101092.38
2022-08-28T09:17:16.382Z,101086.47
2022-08-28T09:19:21.037Z,101094.03
2022-08-28T09:21:29.601Z,101087.03
2022-08-28T09:23:31.253Z,101095.09
2022-08-28T09:25:53.745Z,101098.63
2022-08-28T09:28:05.282Z,101098.56
2022-08-28T09:30:09.330Z,101097.38
2022-08-28T09:32:23.798Z,101088.19
2022-08-28T09:34:29.928Z,101095.38
2022-08-28T09:36:33.126Z,101103.81
2022-08-28T09:38:34.679Z,101102.69
2022-08-28T09:40:36.586Z,101099.38
2022-08-28T09:42:38.247Z,101107.28
2022-08-28T09:44:53.108Z,101099.28
2022-08-28T09:46:54.786Z,101112.66
2022-08-28T09:49:09.423Z,101114.44
2022-08-28T09:51:13.846Z,101109.47
2022-08-28T09:53:19.580Z,101117.13
2022-08-28T09:55:30.834Z,101117.94
2022-08-28T09:57:32.552Z,101118.84
2022-08-28T09:59:34.031Z,101123.09
2022-08-28T10:01:47.189Z,101121.69
2022-08-28T10:03:56.416Z,101119.94
2022-08-28T10:06:08.491Z,101124.59
2022-08-28T10:08:23.141Z,101123.88
2022-08-28T10:10:33.722Z,101126.00
2022-08-28T10:12:46.552Z,101126.06
2022-08-28T10:14:56.012Z,101133.63
2022-08-28T10:17:08.494Z,101129.59
2022-08-28T10:19:23.922Z,101128.31
2022-08-28T10:21:35.663Z,101125.88
2022-08-28T10:23:49.233Z,101136.16
2022-08-28T10:25:58.307Z,101124.72
2022-08-28T10:28:21.199Z,101135.31
2022-08-28T10:30:24.879Z,101130.13
2022-08-28T10:32:59.279Z,101145.28
2022-08-28T10:35:09.455Z,101134.41
2022-08-28T10:37:26.650Z,101141.72
2022-08-28T10:39:46.305Z,101148.66
2022-08-28T10:41:50.837Z,101145.28
2022-08-28T10:43:54.659Z,101142.13
2022-08-28T10:46:00.993Z,101151.69
2022-08-28T10:48:08.959Z,101151.34
2022-08-28T10:50:17.137Z,101158.22
2022-08-28T10:52:26.553Z,101155.63
2022-08-28T10:54:32.777Z,101151.84
2022-08-28T10:56:40.543Z,101157.25
2022-08-28T10:58:42.108Z,101156.66
2022-08-28T11:00:44.576Z,101154.00
2022-08-28T11:02:50.333Z,101152.00
2022-08-28T11:04:58.205Z,101156.56
2022-08-28T11:07:04.386Z,101158.66
2022-08-28T11:09:13.654Z,101158.09
2022-08-28T11:11:40.645Z,101167.09
2022-08-28T11:13:51.778Z,101170.06
2022-08-28T11:15:53.554Z,101169.34
2022-08-28T11:17:57.207Z,101179.75
2022-08-28T11:20:13.544Z,101175.81
2022-08-28T11:22:18.167Z,101177.91
2022-08-28T11:24:43.780Z,101176.72
2022-08-28T11:26:56.461Z,101172.03
2022-08-28T11:28:58.097Z,101176.31
2022-08-28T11:31:32.291Z,101173.31
2022-08-28T11:33:37.819Z,101180.19
2022-08-28T11:35:49.189Z,101183.38
2022-08-28T11:37:53.376Z,101177.97
2022-08-28T11:40:13.869Z,101186.59
2022-08-28T11:42:37.151Z,101197.91
2022-08-28T11:44:42.113Z,101184.66
2022-08-28T11:46:46.162Z,101186.75
2022-08-28T11:48:51.252Z,101188.97
2022-08-28T11:50:55.779Z,101188.81
2022-08-28T11:53:26.118Z,101185.91
2022-08-28T11:55:46.255Z,101184.19
2022-08-28T12:00:19.635Z,101181.00
2022-08-28T12:02:46.494Z,101183.41
2022-08-28T12:04:48.206Z,101182.59
2022-08-28T12:07:14.502Z,101185.88
2022-08-28T12:09:42.896Z,101176.19
2022-08-28T12:12:02.117Z,101175.53
2022-08-28T12:14:03.696Z,101171.88
2022-08-28T12:16:13.397Z,101177.50
2022-08-28T12:19:02.228Z,101182.66
2022-08-28T12:21:07.102Z,101177.88
2022-08-28T12:23:32.350Z,101181.72
2022-08-28T12:25:39.241Z,101188.56
2022-08-28T12:27:41.515Z,101177.50
2022-08-28T12:29:48.693Z,101170.66
2022-08-28T12:32:25.166Z,101185.38
2022-08-28T12:34:38.220Z,101185.97
2022-08-28T12:36:39.804Z,101180.69
2022-08-28T12:38:48.741Z,101186.19
2022-08-28T12:40:51.809Z,101181.50
2022-08-28T12:42:56.091Z,101181.03
2022-08-28T12:45:00.890Z,101174.91
2022-08-28T12:47:02.475Z,101183.09
2022-08-28T12:49:25.054Z,101178.19
2022-08-28T12:51:28.607Z,101182.34
2022-08-28T12:53:38.447Z,101180.88
2022-08-28T12:55:40.604Z,101176.28
2022-08-28T12:57:46.017Z,101181.28
2022-08-28T12:59:49.184Z,101173.69
2022-08-28T13:01:51.917Z,101172.31
2022-08-28T13:03:59.901Z,101174.69
2022-08-28T13:06:04.599Z,101175.34
2022-08-28T13:08:09.954Z,101175.00
2022-08-28T13:10:20.053Z,101175.03
2022-08-28T13:12:31.978Z,101179.28
2022-08-28T13:14:48.712Z,101172.56
2022-08-28T13:16:52.001Z,101169.88
2022-08-28T13:19:34.364Z,101159.44
2022-08-28T13:21:37.761Z,101168.88
2022-08-28T13:23:39.890Z,101159.72
2022-08-28T13:25:41.437Z,101158.53
2022-08-28T13:27:43.008Z,101162.84
2022-08-28T13:29:57.481Z,101157.75
2022-08-28T13:32:06.044Z,101152.50
2022-08-28T13:34:11.364Z,101157.34
2022-08-28T13:36:20.644Z,101148.84
2022-08-28T13:38:25.189Z,101152.50
2022-08-28T13:42:55.698Z,101152.72
2022-08-28T13:44:58.538Z,101149.75
2022-08-28T13:47:01.390Z,101152.56
2022-08-28T13:49:02.904Z,101145.44
2022-08-28T13:51:10.240Z,101138.44
2022-08-28T13:53:13.478Z,101146.38
2022-08-28T13:55:15.156Z,101140.84
2022-08-28T13:57:16.731Z,101143.34
2022-08-28T13:59:19.321Z,101142.81
2022-08-28T14:01:30.559Z,101140.09
2022-08-28T14:03:32.977Z,101135.59
2022-08-28T14:05:34.532Z,101148.75
2022-08-28T14:07:36.063Z,101152.19
2022-08-28T14:09:37.605Z,101147.31
2022-08-28T14:11:39.340Z,101143.63
2022-08-28T14:13:47.003Z,101152.59
2022-08-28T14:15:57.797Z,101146.47
2022-08-28T14:18:01.270Z,101142.44
2022-08-28T14:20:03.652Z,101143.28
2022-08-28T14:22:05.322Z,101138.19
2022-08-28T14:24:07.881Z,101131.34
2022-08-28T14:26:09.417Z,101143.88
2022-08-28T14:28:11.169Z,101137.06
2022-08-28T14:30:13.533Z,101130.22
2022-08-28T14:32:15.066Z,101130.22
2022-08-28T14:34:20.423Z,101132.47
2022-08-28T14:36:23.985Z,101127.56
2022-08-28T14:38:25.526Z,101125.00
2022-08-28T14:40:27.215Z,101124.94
2022-08-28T14:42:28.784Z,101120.25
2022-08-28T14:44:30.315Z,101114.72
2022-08-28T14:46:33.877Z,101113.56
2022-08-28T14:48:35.426Z,101111.81
2022-08-28T14:50:40.830Z,101109.00
2022-08-28T14:52:42.357Z,101107.88
2022-08-28T14:54:43.927Z,101116.31
2022-08-28T14:56:47.219Z,101122.38
2022-08-28T14:58:48.921Z,101118.19
2022-08-28T15:00:51.217Z,101110.44
2022-08-28T15:02:53.317Z,101117.06
2022-08-28T15:05:01.494Z,101120.03
2022-08-28T15:07:07.026Z,101124.31
2022-08-28T15:09:08.809Z,101117.59
2022-08-28T15:11:17.875Z,101109.91
2022-08-28T15:13:20.124Z,101104.19
2022-08-28T15:15:23.492Z,101103.28
2022-08-28T15:17:33.958Z,101107.84
2022-08-28T15:19:36.470Z,101107.19
2022-08-28T15:21:41.877Z,101106.50
2022-08-28T15:23:45.203Z,101106.59
2022-08-28T15:25:46.743Z,101110.44
2022-08-28T15:27:48.363Z,101108.59
2022-08-28T15:29:49.877Z,101093.31
2022-08-28T15:31:52.693Z,101098.16
2022-08-28T15:33:54.299Z,101099.75
2022-08-28T15:35:56.616Z,101100.59
2022-08-28T15:37:58.200Z,101108.47
2022-08-28T15:40:01.166Z,101105.22
2022-08-28T15:42:02.846Z,101103.88
2022-08-28T15:44:05.246Z,101101.00
2022-08-28T15:46:13.384Z,101109.56
2022-08-28T15:48:14.957Z,101103.31
2022-08-28T15:50:16.806Z,101102.47
2022-08-28T15:52:21.550Z,101098.47
2022-08-28T15:54:24.256Z,101089.91
2022-08-28T15:56:28.046Z,101088.88
2022-08-28T15:58:29.666Z,101094.09
2022-08-28T16:00:31.299Z,101094.09
2022-08-28T16:02:33.185Z,101099.53
2022-08-28T16:04:34.781Z,101091.38
2022-08-28T16:06:36.734Z,101093.00
2022-08-28T16:10:39.623Z,101099.81
2022-08-28T16:12:42.609Z,101110.38
2022-08-28T16:14:46.440Z,101096.25
2022-08-28T16:16:50.839Z,101094.09
2022-08-28T16:18:52.624Z,101078.41
2022-08-28T16:20:54.346Z,101086.25
2022-08-28T16:22:55.855Z,101077.81
2022-08-28T16:24:57.375Z,101084.88
2022-08-28T16:26:59.036Z,101092.72
2022-08-28T16:29:02.100Z,101088.59
2022-08-28T16:31:05.193Z,101087.94
2022-08-28T16:33:09.569Z,101086.31
2022-08-28T16:35:11.369Z,101084.59
2022-08-28T16:37:13.113Z,101090.25
2022-08-28T16:39:18.010Z,101085.69
2022-08-28T16:41:22.480Z,101091.22
2022-08-28T16:43:24.179Z,101087.44
2022-08-28T16:45:27.174Z,101097.50
2022-08-28T16:47:31.659Z,101096.09
2022-08-28T16:49:33.457Z,101097.97
2022-08-28T16:51:35.005Z,101093.69
2022-08-28T16:53:36.927Z,101091.88
2022-08-28T16:55:39.128Z,101099.81
2022-08-28T16:57:41.104Z,101089.88
2022-08-28T16:59:42.733Z,101092.47
2022-08-28T17:01:46.219Z,101095.03
2022-08-28T17:03:55.060Z,101084.91
2022-08-28T17:06:00.431Z,101096.78
2022-08-28T17:08:02.207Z,101092.78
2022-08-28T17:10:04.133Z,101094.22
2022-08-28T17:12:05.979Z,101098.19
2022-08-28T17:14:07.518Z,101099.91
2022-08-28T17:16:10.392Z,101093.03
2022-08-28T17:18:13.566Z,101101.94
2022-08-28T17:20:15.725Z,101099.03
2022-08-28T17:22:17.464Z,101099.63
2022-08-28T17:24:21.658Z,101105.66
2022-08-28T17:26:24.164Z,101102.81
2022-08-28T17:28:25.826Z,101111.66
2022-08-28T17:30:27.392Z,101109.41
2022-08-28T17:32:28.905Z,101120.22
2022-08-28T17:34:31.948Z,101113.38
2022-08-28T17:36:35.378Z,101114.09
2022-08-28T17:38:37.135Z,101111.38
2022-08-28T17:40:38.761Z,101113.69
2022-08-28T17:42:40.547Z,101117.09
2022-08-28T17:44:42.166Z,101119.94
2022-08-28T17:46:43.743Z,101118.06
2022-08-28T17:48:47.867Z,101111.63
2022-08-28T17:50:57.559Z,101123.88
2022-08-28T17:52:59.083Z,101117.28
2022-08-28T17:55:01.277Z,101121.97
2022-08-28T17:57:02.789Z,101117.81
2022-08-28T17:59:04.334Z,101120.25
2022-08-28T18:01:06.290Z,101122.63
2022-08-28T18:03:07.845Z,101128.59
2022-08-28T18:05:11.118Z,101136.78
2022-08-28T18:07:14.113Z,101126.63
2022-08-28T18:09:15.708Z,101139.03
2022-08-28T18:11:18.180Z,101138.88
2022-08-28T18:13:19.763Z,101134.88
2022-08-28T18:15:21.276Z,101141.69
2022-08-28T18:17:22.851Z,101149.41
2022-08-28T18:19:24.749Z,101150.94
2022-08-28T18:21:26.510Z,101152.94
2022-08-28T18:23:29.769Z,101156.63
2022-08-28T18:25:31.350Z,101161.31
2022-08-28T18:27:32.909Z,101157.94
2022-08-28T18:29:34.806Z,101158.47
2022-08-28T18:31:36.538Z,101158.00
2022-08-28T18:33:38.773Z,101157.56
2022-08-28T18:35:45.119Z,101160.97
2022-08-28T18:37:49.754Z,101163.47
2022-08-28T18:39:54.431Z,101165.00
2022-08-28T18:41:56.193Z,101164.78
2022-08-28T18:43:57.736Z,101161.53
2022-08-28T18:46:06.149Z,101162.03
2022-08-28T18:48:08.067Z,101168.56
2022-08-28T18:50:10.502Z,101177.19
2022-08-28T18:52:12.072Z,101168.09
2022-08-28T18:54:16.432Z,101180.75
2022-08-28T18:56:19.561Z,101187.50
2022-08-28T18:58:22.164Z,101176.44
2022-08-28T19:00:24.869Z,101180.38
2022-08-28T19:02:26.870Z,101180.28
2022-08-28T19:04:28.966Z,101181.13
2022-08-28T19:06:30.789Z,101185.69
2022-08-28T19:08:32.378Z,101196.47
2022-08-28T19:10:35.278Z,101193.03
2022-08-28T19:12:40.791Z,101189.75
2022-08-28T19:14:42.370Z,101190.25
2022-08-28T19:16:43.948Z,101197.38
2022-08-28T19:18:46.305Z,101201.31
2022-08-28T19:20:49.807Z,101202.31
2022-08-28T19:22:51.381Z,101201.81
2022-08-28T19:24:53.117Z,101203.19
2022-08-28T19:26:54.667Z,101209.78
2022-08-28T19:28:57.607Z,101209.69
2022-08-28T19:30:59.695Z,101220.72
2022-08-28T19:33:02.459Z,101212.75
2022-08-28T19:35:04.685Z,101215.09
2022-08-28T19:37:06.358Z,101219.00
2022-08-28T19:39:07.890Z,101217.28
2022-08-28T19:41:10.919Z,101215.94
2022-08-28T19:43:16.533Z,101218.75
2022-08-28T19:45:20.766Z,101222.94
2022-08-28T19:47:22.530Z,101222.94
2022-08-28T19:49:24.071Z,101231.88
2022-08-28T19:51:25.607Z,101225.31
2022-08-28T19:53:27.171Z,101227.03
2022-08-28T19:55:29.046Z,101232.91
2022-08-28T19:57:30.565Z,101232.53
2022-08-28T19:59:33.161Z,101215.75
2022-08-28T20:01:40.020Z,101228.50
2022-08-28T20:03:41.603Z,101234.63
2022-08-28T20:05:43.422Z,101233.16
2022-08-28T20:07:45.396Z,101237.56
2022-08-28T20:09:46.978Z,101238.41
2022-08-28T20:11:48.901Z,101236.06
2022-08-28T20:13:50.661Z,101238.78
2022-08-28T20:15:52.260Z,101247.72
2022-08-28T20:17:55.261Z,101243.19
2022-08-28T20:20:02.384Z,101245.16
2022-08-28T20:22:04.571Z,101246.88
2022-08-28T20:24:07.527Z,101257.66
2022-08-28T20:26:10.200Z,101253.34
2022-08-28T20:28:11.864Z,101254.06
2022-08-28T20:30:13.965Z,101250.47
2022-08-28T20:32:15.527Z,101252.81
2022-08-28T20:34:19.979Z,101259.78
2022-08-28T20:36:21.622Z,101256.59
2022-08-28T20:38:28.671Z,101260.28
2022-08-28T20:40:30.713Z,101261.50
2022-08-28T20:42:32.242Z,101264.47
2022-08-28T20:44:33.820Z,101257.06
2022-08-28T20:46:40.718Z,101267.13
2022-08-28T20:48:43.168Z,101258.41
2022-08-28T20:50:46.036Z,101263.22
2022-08-28T20:52:47.571Z,101260.50
2022-08-28T20:54:49.525Z,101265.03
2022-08-28T20:56:51.483Z,101263.44
2022-08-28T20:58:52.997Z,101257.81
2022-08-28T21:00:55.026Z,101261.72
2022-08-28T21:03:01.222Z,101257.00
2022-08-28T21:05:04.013Z,101262.88
2022-08-28T21:07:06.997Z,101269.72
2022-08-28T21:09:08.555Z,101264.00
2022-08-28T21:11:10.152Z,101267.25
2022-08-28T21:13:15.953Z,101259.56
2022-08-28T21:15:17.525Z,101268.69
2022-08-28T21:17:29.012Z,101267.72
2022-08-28T21:19:31.907Z,101273.97
2022-08-28T21:21:34.251Z,101273.22
2022-08-28T21:23:39.618Z,101276.88
2022-08-28T21:25:41.349Z,101278.19
2022-08-28T21:27:47.257Z,101276.41
2022-08-28T21:29:48.763Z,101269.44
2022-08-28T21:31:52.409Z,101275.72
2022-08-28T21:33:53.988Z,101272.63
2022-08-28T21:35:55.872Z,101279.09
2022-08-28T21:37:57.464Z,101272.56
2022-08-28T21:40:06.667Z,101263.50
2022-08-28T21:42:08.233Z,101265.47
2022-08-28T21:44:10.227Z,101258.13
2022-08-28T21:46:13.866Z,101269.75
2022-08-28T21:48:15.600Z,101268.25
2022-08-28T21:50:17.335Z,101267.63
2022-08-28T21:52:20.577Z,101266.09
2022-08-28T21:54:23.308Z,101276.03
2022-08-28T21:56:27.052Z,101272.38
2022-08-28T21:58:28.975Z,101277.75
2022-08-28T22:00:30.530Z,101280.34
2022-08-28T22:02:32.154Z,101280.13
2022-08-28T22:04:34.071Z,101290.13
2022-08-28T22:06:35.651Z,101285.41
2022-08-28T22:08:39.304Z,101284.34
2022-08-28T22:10:42.511Z,101285.97
2022-08-28T22:12:45.425Z,101288.66
2022-08-28T22:14:47.001Z,101297.22
2022-08-28T22:16:48.602Z,101294.09
2022-08-28T22:18:50.912Z,101286.78
2022-08-28T22:20:55.034Z,101289.28
2022-08-28T22:23:01.641Z,101301.63
2022-08-28T22:25:04.456Z,101289.47
2022-08-28T22:27:06.114Z,101295.41
2022-08-28T22:29:12.105Z,101294.31
2022-08-28T22:31:13.989Z,101290.88
2022-08-28T22:33:21.184Z,101291.28
2022-08-28T22:35:22.843Z,101293.00
2022-08-28T22:37:24.576Z,101291.28
2022-08-28T22:39:26.172Z,101294.50
2022-08-28T22:41:27.709Z,101293.63
2022-08-28T22:43:29.208Z,101293.63
2022-08-28T22:45:32.103Z,101289.84
2022-08-28T22:47:33.714Z,101289.84
2022-08-28T22:49:39.240Z,101296.41
2022-08-28T22:51:41.365Z,101304.78
2022-08-28T22:53:42.951Z,101306.06
2022-08-28T22:55:44.905Z,101305.59
2022-08-28T22:57:46.593Z,101306.25
2022-08-28T22:59:48.283Z,101312.59
2022-08-28T23:01:51.179Z,101305.28
2022-08-28T23:03:52.939Z,101313.91
2022-08-28T23:05:54.531Z,101312.59
2022-08-28T23:07:56.517Z,101312.03
2022-08-28T23:09:58.043Z,101316.84
2022-08-28T23:12:00.086Z,101306.31
2022-08-28T23:14:02.070Z,101299.94
2022-08-28T23:16:04.078Z,101297.38
2022-08-28T23:18:07.218Z,101286.41
2022-08-28T23:20:10.289Z,101298.13
2022-08-28T23:22:13.095Z,101299.75
2022-08-28T23:24:15.905Z,101296.00
2022-08-28T23:26:18.053Z,101294.88
2022-08-28T23:28:19.930Z,101309.25
2022-08-28T23:30:22.716Z,101302.56
2022-08-28T23:32:24.206Z,101298.06
2022-08-28T23:34:27.651Z,101290.66
2022-08-28T23:36:29.372Z,101302.16
2022-08-28T23:38:30.909Z,101295.78
2022-08-28T23:40:32.774Z,101305.03
2022-08-28T23:42:34.520Z,101303.31
2022-08-28T23:44:36.514Z,101296.78